sensor_id;sensor_type;location;lat;lon;timestamp;P1;durP1;ratioP1;P2;durP2;ratioP2
43990;SDS011;29654;50.784;20.604;2023-02-28T00:02:30;20.67;;;11.88;;
43990;SDS011;29654;50.784;20.604;2023-02-28T00:07:33;16.80;;;10.60;;
43990;SDS011;29654;50.784;20.604;2023-02-28T00:12:38;16.38;;;11.07;;
43990;SDS011;29654;50.784;20.604;2023-02-28T00:17:41;15.43;;;10.73;;
43990;SDS011;29654;50.784;20.604;2023-02-28T00:22:44;17.88;;;11.57;;
43990;SDS011;29654;50.784;20.604;2023-02-28T00:27:50;15.93;;;10.55;;
43990;SDS011;29654;50.784;20.604;2023-02-28T00:32:53;17.70;;;12.00;;
43990;SDS011;29654;50.784;20.604;2023-02-28T00:37:55;18.52;;;11.65;;
43990;SDS011;29654;50.784;20.604;2023-02-28T00:42:59;15.18;;;11.07;;
43990;SDS011;29654;50.784;20.604;2023-02-28T00:48:02;16.70;;;10.68;;
43990;SDS011;29654;50.784;20.604;2023-02-28T00:53:06;17.98;;;11.23;;
43990;SDS011;29654;50.784;20.604;2023-02-28T00:58:10;17.58;;;10.70;;
43990;SDS011;29654;50.784;20.604;2023-02-28T01:03:12;16.30;;;10.50;;
43990;SDS011;29654;50.784;20.604;2023-02-28T01:08:16;17.85;;;11.15;;
43990;SDS011;29654;50.784;20.604;2023-02-28T01:13:20;18.17;;;11.05;;
43990;SDS011;29654;50.784;20.604;2023-02-28T01:18:23;18.40;;;12.00;;
43990;SDS011;29654;50.784;20.604;2023-02-28T01:23:26;14.38;;;9.82;;
43990;SDS011;29654;50.784;20.604;2023-02-28T01:28:30;14.20;;;9.15;;
43990;SDS011;29654;50.784;20.604;2023-02-28T01:33:32;14.45;;;9.93;;
43990;SDS011;29654;50.784;20.604;2023-02-28T01:38:35;13.82;;;9.63;;
43990;SDS011;29654;50.784;20.604;2023-02-28T01:43:53;15.68;;;9.15;;
43990;SDS011;29654;50.784;20.604;2023-02-28T01:49:07;13.13;;;8.60;;
43990;SDS011;29654;50.784;20.604;2023-02-28T01:54:15;13.70;;;9.40;;
43990;SDS011;29654;50.784;20.604;2023-02-28T01:59:23;13.20;;;9.05;;
43990;SDS011;29654;50.784;20.604;2023-02-28T02:04:32;15.35;;;9.63;;
43990;SDS011;29654;50.784;20.604;2023-02-28T02:09:40;13.90;;;8.82;;
43990;SDS011;29654;50.784;20.604;2023-02-28T02:14:50;11.95;;;8.38;;
43990;SDS011;29654;50.784;20.604;2023-02-28T02:20:16;13.23;;;8.82;;
43990;SDS011;29654;50.784;20.604;2023-02-28T02:25:49;13.68;;;8.15;;
43990;SDS011;29654;50.784;20.604;2023-02-28T02:36:56;13.38;;;8.63;;
43990;SDS011;29654;50.784;20.604;2023-02-28T02:42:11;11.30;;;8.55;;
43990;SDS011;29654;50.784;20.604;2023-02-28T02:47:19;11.93;;;7.45;;
43990;SDS011;29654;50.784;20.604;2023-02-28T02:52:27;11.60;;;8.57;;
43990;SDS011;29654;50.784;20.604;2023-02-28T02:57:40;10.98;;;8.63;;
43990;SDS011;29654;50.784;20.604;2023-02-28T03:02:48;8.57;;;7.68;;
43990;SDS011;29654;50.784;20.604;2023-02-28T03:07:55;11.45;;;8.15;;
43990;SDS011;29654;50.784;20.604;2023-02-28T03:13:00;10.93;;;8.38;;
43990;SDS011;29654;50.784;20.604;2023-02-28T03:18:15;11.98;;;8.23;;
43990;SDS011;29654;50.784;20.604;2023-02-28T03:23:29;11.68;;;7.75;;
43990;SDS011;29654;50.784;20.604;2023-02-28T03:28:43;10.82;;;7.95;;
43990;SDS011;29654;50.784;20.604;2023-02-28T03:33:55;12.02;;;8.13;;
43990;SDS011;29654;50.784;20.604;2023-02-28T03:39:06;10.88;;;7.53;;
43990;SDS011;29654;50.784;20.604;2023-02-28T03:44:12;8.75;;;7.47;;
43990;SDS011;29654;50.784;20.604;2023-02-28T03:49:18;11.25;;;8.20;;
43990;SDS011;29654;50.784;20.604;2023-02-28T03:54:27;9.18;;;7.00;;
43990;SDS011;29654;50.784;20.604;2023-02-28T03:59:34;11.88;;;7.47;;
43990;SDS011;29654;50.784;20.604;2023-02-28T04:04:43;8.75;;;6.85;;
43990;SDS011;29654;50.784;20.604;2023-02-28T04:09:49;10.38;;;8.45;;
43990;SDS011;29654;50.784;20.604;2023-02-28T04:14:53;12.10;;;7.68;;
43990;SDS011;29654;50.784;20.604;2023-02-28T04:19:55;12.90;;;8.18;;
43990;SDS011;29654;50.784;20.604;2023-02-28T04:25:00;11.07;;;8.15;;
43990;SDS011;29654;50.784;20.604;2023-02-28T04:30:02;10.80;;;7.45;;
43990;SDS011;29654;50.784;20.604;2023-02-28T04:35:06;9.50;;;7.10;;
43990;SDS011;29654;50.784;20.604;2023-02-28T04:40:11;10.18;;;6.88;;
43990;SDS011;29654;50.784;20.604;2023-02-28T04:45:14;11.70;;;7.88;;
43990;SDS011;29654;50.784;20.604;2023-02-28T04:50:17;12.60;;;6.90;;
43990;SDS011;29654;50.784;20.604;2023-02-28T04:55:21;11.18;;;7.45;;
43990;SDS011;29654;50.784;20.604;2023-02-28T05:00:24;11.18;;;7.57;;
43990;SDS011;29654;50.784;20.604;2023-02-28T05:05:26;14.18;;;9.00;;
43990;SDS011;29654;50.784;20.604;2023-02-28T05:10:30;15.63;;;9.75;;
43990;SDS011;29654;50.784;20.604;2023-02-28T05:15:33;15.60;;;9.38;;
43990;SDS011;29654;50.784;20.604;2023-02-28T05:20:36;15.23;;;9.52;;
43990;SDS011;29654;50.784;20.604;2023-02-28T05:25:40;17.48;;;10.18;;
43990;SDS011;29654;50.784;20.604;2023-02-28T05:30:42;17.38;;;10.38;;
43990;SDS011;29654;50.784;20.604;2023-02-28T05:35:45;13.15;;;8.55;;
43990;SDS011;29654;50.784;20.604;2023-02-28T05:40:49;13.77;;;8.90;;
43990;SDS011;29654;50.784;20.604;2023-02-28T05:45:52;15.93;;;9.30;;
43990;SDS011;29654;50.784;20.604;2023-02-28T05:50:54;14.65;;;9.25;;
43990;SDS011;29654;50.784;20.604;2023-02-28T05:56:00;16.27;;;10.30;;
43990;SDS011;29654;50.784;20.604;2023-02-28T06:06:23;12.70;;;9.88;;
43990;SDS011;29654;50.784;20.604;2023-02-28T06:11:27;10.30;;;7.68;;
43990;SDS011;29654;50.784;20.604;2023-02-28T06:16:31;13.27;;;9.40;;
43990;SDS011;29654;50.784;20.604;2023-02-28T06:21:35;11.75;;;8.57;;
43990;SDS011;29654;50.784;20.604;2023-02-28T06:26:39;12.75;;;9.73;;
43990;SDS011;29654;50.784;20.604;2023-02-28T06:31:42;18.70;;;12.13;;
43990;SDS011;29654;50.784;20.604;2023-02-28T06:36:45;20.60;;;12.82;;
43990;SDS011;29654;50.784;20.604;2023-02-28T06:41:48;20.73;;;12.88;;
43990;SDS011;29654;50.784;20.604;2023-02-28T06:46:52;16.92;;;12.52;;
43990;SDS011;29654;50.784;20.604;2023-02-28T06:51:55;16.35;;;11.63;;
43990;SDS011;29654;50.784;20.604;2023-02-28T06:56:59;19.05;;;12.15;;
43990;SDS011;29654;50.784;20.604;2023-02-28T07:02:02;13.15;;;9.45;;
43990;SDS011;29654;50.784;20.604;2023-02-28T07:07:06;11.73;;;9.25;;
43990;SDS011;29654;50.784;20.604;2023-02-28T07:12:10;10.93;;;8.13;;
43990;SDS011;29654;50.784;20.604;2023-02-28T07:17:13;11.10;;;8.02;;
43990;SDS011;29654;50.784;20.604;2023-02-28T07:22:15;11.38;;;7.63;;
43990;SDS011;29654;50.784;20.604;2023-02-28T07:27:20;9.55;;;6.47;;
43990;SDS011;29654;50.784;20.604;2023-02-28T07:32:25;8.13;;;5.82;;
43990;SDS011;29654;50.784;20.604;2023-02-28T07:37:28;7.25;;;5.72;;
43990;SDS011;29654;50.784;20.604;2023-02-28T07:42:33;7.70;;;5.55;;
43990;SDS011;29654;50.784;20.604;2023-02-28T07:47:38;7.88;;;6.45;;
43990;SDS011;29654;50.784;20.604;2023-02-28T07:52:40;7.93;;;6.55;;
43990;SDS011;29654;50.784;20.604;2023-02-28T07:57:45;8.75;;;6.57;;
43990;SDS011;29654;50.784;20.604;2023-02-28T08:02:47;6.60;;;5.65;;
43990;SDS011;29654;50.784;20.604;2023-02-28T08:07:50;7.70;;;6.05;;
43990;SDS011;29654;50.784;20.604;2023-02-28T08:12:55;7.53;;;5.63;;
43990;SDS011;29654;50.784;20.604;2023-02-28T08:17:57;8.80;;;6.63;;
43990;SDS011;29654;50.784;20.604;2023-02-28T08:23:00;7.35;;;5.55;;
43990;SDS011;29654;50.784;20.604;2023-02-28T08:28:04;9.35;;;6.47;;
43990;SDS011;29654;50.784;20.604;2023-02-28T08:33:07;7.15;;;6.38;;
43990;SDS011;29654;50.784;20.604;2023-02-28T08:38:09;9.07;;;6.68;;
43990;SDS011;29654;50.784;20.604;2023-02-28T08:43:13;8.10;;;6.75;;
43990;SDS011;29654;50.784;20.604;2023-02-28T08:48:16;9.13;;;6.05;;
43990;SDS011;29654;50.784;20.604;2023-02-28T08:53:18;8.80;;;6.53;;
43990;SDS011;29654;50.784;20.604;2023-02-28T08:58:22;12.05;;;8.73;;
43990;SDS011;29654;50.784;20.604;2023-02-28T09:03:25;6.47;;;5.05;;
43990;SDS011;29654;50.784;20.604;2023-02-28T09:08:28;7.78;;;6.18;;
43990;SDS011;29654;50.784;20.604;2023-02-28T09:13:33;7.90;;;6.25;;
43990;SDS011;29654;50.784;20.604;2023-02-28T09:18:36;11.00;;;7.28;;
43990;SDS011;29654;50.784;20.604;2023-02-28T09:23:39;8.65;;;6.65;;
43990;SDS011;29654;50.784;20.604;2023-02-28T09:28:43;8.18;;;6.63;;
43990;SDS011;29654;50.784;20.604;2023-02-28T09:33:46;9.55;;;6.68;;
43990;SDS011;29654;50.784;20.604;2023-02-28T09:38:50;7.18;;;6.05;;
43990;SDS011;29654;50.784;20.604;2023-02-28T09:43:55;9.43;;;6.82;;
43990;SDS011;29654;50.784;20.604;2023-02-28T09:49:00;10.38;;;7.18;;
43990;SDS011;29654;50.784;20.604;2023-02-28T09:54:09;8.90;;;7.50;;
43990;SDS011;29654;50.784;20.604;2023-02-28T10:04:58;10.15;;;7.15;;
43990;SDS011;29654;50.784;20.604;2023-02-28T10:10:07;8.05;;;7.13;;
43990;SDS011;29654;50.784;20.604;2023-02-28T10:15:25;9.98;;;6.32;;
43990;SDS011;29654;50.784;20.604;2023-02-28T10:20:33;7.15;;;6.20;;
43990;SDS011;29654;50.784;20.604;2023-02-28T10:25:39;7.90;;;6.05;;
43990;SDS011;29654;50.784;20.604;2023-02-28T10:30:43;7.90;;;6.82;;
43990;SDS011;29654;50.784;20.604;2023-02-28T10:35:49;9.02;;;6.78;;
43990;SDS011;29654;50.784;20.604;2023-02-28T10:41:03;8.07;;;6.90;;
43990;SDS011;29654;50.784;20.604;2023-02-28T10:46:12;8.98;;;7.28;;
43990;SDS011;29654;50.784;20.604;2023-02-28T10:51:25;10.43;;;7.05;;
43990;SDS011;29654;50.784;20.604;2023-02-28T10:56:38;8.52;;;6.65;;
43990;SDS011;29654;50.784;20.604;2023-02-28T11:01:43;7.03;;;6.32;;
43990;SDS011;29654;50.784;20.604;2023-02-28T11:06:55;9.23;;;6.78;;
43990;SDS011;29654;50.784;20.604;2023-02-28T11:12:00;7.85;;;6.95;;
43990;SDS011;29654;50.784;20.604;2023-02-28T11:17:13;7.68;;;6.32;;
43990;SDS011;29654;50.784;20.604;2023-02-28T11:22:23;6.80;;;6.15;;
43990;SDS011;29654;50.784;20.604;2023-02-28T11:27:48;9.25;;;7.05;;
43990;SDS011;29654;50.784;20.604;2023-02-28T11:32:54;9.48;;;7.63;;
43990;SDS011;29654;50.784;20.604;2023-02-28T11:37:56;7.35;;;6.45;;
43990;SDS011;29654;50.784;20.604;2023-02-28T11:43:01;7.45;;;6.63;;
43990;SDS011;29654;50.784;20.604;2023-02-28T11:48:25;8.45;;;7.50;;
43990;SDS011;29654;50.784;20.604;2023-02-28T11:59:32;11.60;;;7.72;;
43990;SDS011;29654;50.784;20.604;2023-02-28T12:04:52;7.03;;;6.32;;
43990;SDS011;29654;50.784;20.604;2023-02-28T12:10:06;10.32;;;7.22;;
43990;SDS011;29654;50.784;20.604;2023-02-28T12:15:32;9.93;;;7.65;;
43990;SDS011;29654;50.784;20.604;2023-02-28T12:20:50;11.27;;;7.43;;
43990;SDS011;29654;50.784;20.604;2023-02-28T12:26:00;9.25;;;7.13;;
43990;SDS011;29654;50.784;20.604;2023-02-28T12:31:11;8.73;;;7.40;;
43990;SDS011;29654;50.784;20.604;2023-02-28T12:36:23;8.27;;;7.40;;
43990;SDS011;29654;50.784;20.604;2023-02-28T12:41:29;9.75;;;7.18;;
43990;SDS011;29654;50.784;20.604;2023-02-28T12:46:40;8.88;;;7.32;;
43990;SDS011;29654;50.784;20.604;2023-02-28T12:51:48;8.05;;;7.25;;
43990;SDS011;29654;50.784;20.604;2023-02-28T12:56:53;7.70;;;6.60;;
43990;SDS011;29654;50.784;20.604;2023-02-28T13:08:07;7.72;;;6.30;;
43990;SDS011;29654;50.784;20.604;2023-02-28T13:13:41;10.65;;;7.43;;
43990;SDS011;29654;50.784;20.604;2023-02-28T13:18:47;10.80;;;7.75;;
43990;SDS011;29654;50.784;20.604;2023-02-28T13:23:59;8.45;;;6.75;;
43990;SDS011;29654;50.784;20.604;2023-02-28T13:29:04;9.75;;;7.53;;
43990;SDS011;29654;50.784;20.604;2023-02-28T13:34:29;9.00;;;7.20;;
43990;SDS011;29654;50.784;20.604;2023-02-28T13:39:46;8.63;;;7.03;;
43990;SDS011;29654;50.784;20.604;2023-02-28T13:50:27;8.73;;;7.82;;
43990;SDS011;29654;50.784;20.604;2023-02-28T13:55:36;9.43;;;7.45;;
43990;SDS011;29654;50.784;20.604;2023-02-28T14:06:22;8.82;;;6.97;;
43990;SDS011;29654;50.784;20.604;2023-02-28T14:11:31;7.68;;;6.85;;
43990;SDS011;29654;50.784;20.604;2023-02-28T14:16:36;8.38;;;6.57;;
43990;SDS011;29654;50.784;20.604;2023-02-28T14:21:52;8.63;;;7.30;;
43990;SDS011;29654;50.784;20.604;2023-02-28T14:27:22;8.52;;;7.35;;
43990;SDS011;29654;50.784;20.604;2023-02-28T14:32:35;8.52;;;6.93;;
43990;SDS011;29654;50.784;20.604;2023-02-28T14:37:47;10.07;;;8.45;;
43990;SDS011;29654;50.784;20.604;2023-02-28T14:42:56;10.43;;;6.93;;
43990;SDS011;29654;50.784;20.604;2023-02-28T14:48:00;10.02;;;7.50;;
43990;SDS011;29654;50.784;20.604;2023-02-28T14:53:04;9.63;;;7.45;;
43990;SDS011;29654;50.784;20.604;2023-02-28T14:58:23;8.88;;;6.75;;
43990;SDS011;29654;50.784;20.604;2023-02-28T15:03:30;6.40;;;5.68;;
43990;SDS011;29654;50.784;20.604;2023-02-28T15:08:35;9.75;;;7.25;;
43990;SDS011;29654;50.784;20.604;2023-02-28T15:13:40;9.00;;;7.47;;
43990;SDS011;29654;50.784;20.604;2023-02-28T15:18:47;8.57;;;7.18;;
43990;SDS011;29654;50.784;20.604;2023-02-28T15:23:53;9.20;;;7.70;;
43990;SDS011;29654;50.784;20.604;2023-02-28T15:29:07;9.40;;;7.25;;
43990;SDS011;29654;50.784;20.604;2023-02-28T15:34:18;11.05;;;7.63;;
43990;SDS011;29654;50.784;20.604;2023-02-28T15:39:24;11.05;;;7.30;;
43990;SDS011;29654;50.784;20.604;2023-02-28T15:44:33;10.07;;;6.88;;
43990;SDS011;29654;50.784;20.604;2023-02-28T15:49:38;8.98;;;7.32;;
43990;SDS011;29654;50.784;20.604;2023-02-28T15:54:47;8.13;;;7.15;;
43990;SDS011;29654;50.784;20.604;2023-02-28T15:59:52;7.10;;;6.30;;
43990;SDS011;29654;50.784;20.604;2023-02-28T16:05:12;8.90;;;6.45;;
43990;SDS011;29654;50.784;20.604;2023-02-28T16:10:28;7.07;;;5.80;;
43990;SDS011;29654;50.784;20.604;2023-02-28T16:15:34;6.90;;;5.63;;
43990;SDS011;29654;50.784;20.604;2023-02-28T16:20:41;7.18;;;5.65;;
43990;SDS011;29654;50.784;20.604;2023-02-28T16:25:45;7.45;;;5.45;;
43990;SDS011;29654;50.784;20.604;2023-02-28T16:30:49;7.28;;;5.75;;
43990;SDS011;29654;50.784;20.604;2023-02-28T16:35:53;9.25;;;5.97;;
43990;SDS011;29654;50.784;20.604;2023-02-28T16:40:57;8.77;;;6.05;;
43990;SDS011;29654;50.784;20.604;2023-02-28T16:46:02;8.32;;;6.40;;
43990;SDS011;29654;50.784;20.604;2023-02-28T16:51:08;9.98;;;7.28;;
43990;SDS011;29654;50.784;20.604;2023-02-28T16:56:14;7.40;;;5.95;;
43990;SDS011;29654;50.784;20.604;2023-02-28T17:01:21;4.68;;;3.95;;
43990;SDS011;29654;50.784;20.604;2023-02-28T17:06:24;7.68;;;5.78;;
43990;SDS011;29654;50.784;20.604;2023-02-28T17:11:29;7.60;;;5.47;;
43990;SDS011;29654;50.784;20.604;2023-02-28T17:16:34;9.32;;;6.15;;
43990;SDS011;29654;50.784;20.604;2023-02-28T17:21:40;7.82;;;5.32;;
43990;SDS011;29654;50.784;20.604;2023-02-28T17:26:43;9.32;;;6.88;;
43990;SDS011;29654;50.784;20.604;2023-02-28T17:31:47;8.55;;;5.80;;
43990;SDS011;29654;50.784;20.604;2023-02-28T17:36:50;5.95;;;4.90;;
43990;SDS011;29654;50.784;20.604;2023-02-28T17:41:53;8.20;;;4.82;;
43990;SDS011;29654;50.784;20.604;2023-02-28T17:46:58;9.85;;;5.80;;
43990;SDS011;29654;50.784;20.604;2023-02-28T17:52:01;10.25;;;6.57;;
43990;SDS011;29654;50.784;20.604;2023-02-28T17:57:04;10.55;;;7.32;;
43990;SDS011;29654;50.784;20.604;2023-02-28T18:02:08;9.95;;;7.18;;
43990;SDS011;29654;50.784;20.604;2023-02-28T18:07:13;10.95;;;6.43;;
43990;SDS011;29654;50.784;20.604;2023-02-28T18:12:15;11.40;;;7.00;;
43990;SDS011;29654;50.784;20.604;2023-02-28T18:17:20;9.75;;;6.95;;
43990;SDS011;29654;50.784;20.604;2023-02-28T18:22:22;8.48;;;6.32;;
43990;SDS011;29654;50.784;20.604;2023-02-28T18:27:25;13.45;;;7.80;;
43990;SDS011;29654;50.784;20.604;2023-02-28T18:32:29;13.40;;;8.70;;
43990;SDS011;29654;50.784;20.604;2023-02-28T18:37:32;14.52;;;8.60;;
43990;SDS011;29654;50.784;20.604;2023-02-28T18:42:34;33.00;;;21.10;;
43990;SDS011;29654;50.784;20.604;2023-02-28T18:47:39;28.63;;;16.92;;
43990;SDS011;29654;50.784;20.604;2023-02-28T18:52:42;32.47;;;20.00;;
43990;SDS011;29654;50.784;20.604;2023-02-28T18:57:45;28.13;;;16.50;;
43990;SDS011;29654;50.784;20.604;2023-02-28T19:02:49;34.05;;;21.80;;
43990;SDS011;29654;50.784;20.604;2023-02-28T19:07:53;18.42;;;11.52;;
43990;SDS011;29654;50.784;20.604;2023-02-28T19:12:55;22.67;;;15.30;;
43990;SDS011;29654;50.784;20.604;2023-02-28T19:17:59;14.90;;;10.35;;
43990;SDS011;29654;50.784;20.604;2023-02-28T19:23:02;23.67;;;14.57;;
43990;SDS011;29654;50.784;20.604;2023-02-28T19:28:04;27.27;;;15.75;;
43990;SDS011;29654;50.784;20.604;2023-02-28T19:33:08;19.27;;;12.88;;
43990;SDS011;29654;50.784;20.604;2023-02-28T19:38:11;34.88;;;20.90;;
43990;SDS011;29654;50.784;20.604;2023-02-28T19:43:14;31.80;;;19.52;;
43990;SDS011;29654;50.784;20.604;2023-02-28T19:48:18;33.17;;;19.90;;
43990;SDS011;29654;50.784;20.604;2023-02-28T19:53:25;31.05;;;20.33;;
43990;SDS011;29654;50.784;20.604;2023-02-28T19:58:28;37.28;;;23.00;;
43990;SDS011;29654;50.784;20.604;2023-02-28T20:03:32;40.85;;;25.13;;
43990;SDS011;29654;50.784;20.604;2023-02-28T20:08:35;44.13;;;26.67;;
43990;SDS011;29654;50.784;20.604;2023-02-28T20:13:38;41.90;;;26.67;;
43990;SDS011;29654;50.784;20.604;2023-02-28T20:18:42;38.88;;;23.77;;
43990;SDS011;29654;50.784;20.604;2023-02-28T20:23:45;59.63;;;31.83;;
43990;SDS011;29654;50.784;20.604;2023-02-28T20:28:49;49.30;;;28.97;;
43990;SDS011;29654;50.784;20.604;2023-02-28T20:33:53;56.60;;;30.50;;
43990;SDS011;29654;50.784;20.604;2023-02-28T20:38:55;50.87;;;31.23;;
43990;SDS011;29654;50.784;20.604;2023-02-28T20:43:58;56.13;;;33.23;;
43990;SDS011;29654;50.784;20.604;2023-02-28T20:49:03;53.72;;;32.08;;
43990;SDS011;29654;50.784;20.604;2023-02-28T20:54:06;57.47;;;32.25;;
43990;SDS011;29654;50.784;20.604;2023-02-28T20:59:10;64.27;;;35.97;;
43990;SDS011;29654;50.784;20.604;2023-02-28T21:04:14;52.23;;;31.60;;
43990;SDS011;29654;50.784;20.604;2023-02-28T21:09:17;69.35;;;37.85;;
43990;SDS011;29654;50.784;20.604;2023-02-28T21:14:20;63.17;;;36.38;;
43990;SDS011;29654;50.784;20.604;2023-02-28T21:19:24;68.72;;;39.08;;
43990;SDS011;29654;50.784;20.604;2023-02-28T21:24:27;72.03;;;40.13;;
43990;SDS011;29654;50.784;20.604;2023-02-28T21:29:29;67.33;;;35.43;;
43990;SDS011;29654;50.784;20.604;2023-02-28T21:34:33;69.13;;;36.23;;
43990;SDS011;29654;50.784;20.604;2023-02-28T21:39:36;54.10;;;30.87;;
43990;SDS011;29654;50.784;20.604;2023-02-28T21:44:38;59.25;;;32.70;;
43990;SDS011;29654;50.784;20.604;2023-02-28T21:49:42;69.37;;;37.23;;
43990;SDS011;29654;50.784;20.604;2023-02-28T21:54:45;76.93;;;43.67;;
43990;SDS011;29654;50.784;20.604;2023-02-28T21:59:48;78.40;;;43.37;;
43990;SDS011;29654;50.784;20.604;2023-02-28T22:04:51;65.90;;;36.87;;
43990;SDS011;29654;50.784;20.604;2023-02-28T22:09:54;61.43;;;34.23;;
43990;SDS011;29654;50.784;20.604;2023-02-28T22:14:57;61.10;;;33.30;;
43990;SDS011;29654;50.784;20.604;2023-02-28T22:20:00;90.47;;;48.47;;
43990;SDS011;29654;50.784;20.604;2023-02-28T22:25:04;69.43;;;40.43;;
43990;SDS011;29654;50.784;20.604;2023-02-28T22:30:09;59.70;;;34.67;;
43990;SDS011;29654;50.784;20.604;2023-02-28T22:35:14;68.83;;;36.97;;
43990;SDS011;29654;50.784;20.604;2023-02-28T22:40:18;62.43;;;33.30;;
43990;SDS011;29654;50.784;20.604;2023-02-28T22:45:21;61.40;;;35.07;;
43990;SDS011;29654;50.784;20.604;2023-02-28T22:50:25;68.07;;;36.20;;
43990;SDS011;29654;50.784;20.604;2023-02-28T22:55:27;68.10;;;35.73;;
43990;SDS011;29654;50.784;20.604;2023-02-28T23:00:30;77.57;;;42.27;;
43990;SDS011;29654;50.784;20.604;2023-02-28T23:05:34;89.80;;;47.67;;
43990;SDS011;29654;50.784;20.604;2023-02-28T23:10:39;91.43;;;47.73;;
43990;SDS011;29654;50.784;20.604;2023-02-28T23:15:42;84.23;;;47.73;;
43990;SDS011;29654;50.784;20.604;2023-02-28T23:20:47;84.33;;;45.43;;
43990;SDS011;29654;50.784;20.604;2023-02-28T23:25:50;86.50;;;44.83;;
43990;SDS011;29654;50.784;20.604;2023-02-28T23:30:53;99.83;;;48.30;;
43990;SDS011;29654;50.784;20.604;2023-02-28T23:35:57;92.90;;;47.13;;
43990;SDS011;29654;50.784;20.604;2023-02-28T23:41:05;88.50;;;47.07;;
43990;SDS011;29654;50.784;20.604;2023-02-28T23:46:09;96.73;;;48.37;;
43990;SDS011;29654;50.784;20.604;2023-02-28T23:51:14;89.87;;;46.57;;
43990;SDS011;29654;50.784;20.604;2023-02-28T23:56:20;85.40;;;44.53;;
